createdAt,value
2022-09-20T00:01:22.122Z,70.58
2022-09-20T00:03:51.811Z,68.80
2022-09-20T00:06:23.258Z,67.41
2022-09-20T00:08:50.635Z,68.00
2022-09-20T00:11:20.624Z,67.12
2022-09-20T00:13:50.054Z,66.09
2022-09-20T00:16:23.602Z,66.88
2022-09-20T00:18:51.357Z,65.73
2022-09-20T00:21:21.116Z,67.27
2022-09-20T00:23:48.319Z,68.40
2022-09-20T00:26:15.327Z,68.42
2022-09-20T00:28:43.484Z,68.81
2022-09-20T00:31:11.883Z,69.38
2022-09-20T00:33:57.407Z,69.80
2022-09-20T00:36:24.687Z,70.13
2022-09-20T00:38:56.877Z,70.39
2022-09-20T00:41:23.804Z,70.55
2022-09-20T00:43:50.899Z,71.34
2022-09-20T00:46:20.627Z,71.00
2022-09-20T00:48:49.437Z,70.67
2022-09-20T00:51:21.437Z,71.52
2022-09-20T00:53:50.851Z,72.18
2022-09-20T00:56:23.976Z,71.83
2022-09-20T00:58:59.421Z,72.61
2022-09-20T01:01:26.585Z,72.75
2022-09-20T01:03:54.516Z,72.85
2022-09-20T01:06:21.322Z,72.72
2022-09-20T01:08:51.286Z,72.92
2022-09-20T01:11:18.242Z,73.28
2022-09-20T01:13:44.919Z,73.01
2022-09-20T01:16:13.917Z,73.35
2022-09-20T01:18:41.989Z,72.99
2022-09-20T01:21:10.017Z,72.85
2022-09-20T01:23:58.464Z,72.34
2022-09-20T01:26:53.268Z,72.14
2022-09-20T01:29:37.025Z,73.32
2022-09-20T01:32:10.915Z,72.96
2022-09-20T01:34:46.333Z,73.25
2022-09-20T01:37:28.377Z,73.50
2022-09-20T01:40:06.252Z,73.75
2022-09-20T01:42:36.973Z,73.80
2022-09-20T01:45:20.369Z,73.97
2022-09-20T01:48:04.485Z,74.66
2022-09-20T01:50:58.249Z,74.36
2022-09-20T01:53:36.921Z,73.91
2022-09-20T01:56:54.503Z,73.79
2022-09-20T01:59:53.248Z,73.34
2022-09-20T02:02:49.193Z,73.60
2022-09-20T02:05:18.666Z,73.75
2022-09-20T02:08:00.828Z,73.75
2022-09-20T02:10:55.412Z,74.38
2022-09-20T02:13:40.170Z,73.49
2022-09-20T02:16:28.567Z,73.39
2022-09-20T02:19:19.990Z,73.23
2022-09-20T02:22:09.166Z,73.61
2022-09-20T02:24:46.387Z,72.85
2022-09-20T02:27:39.775Z,72.45
2022-09-20T02:30:25.317Z,72.47
2022-09-20T02:33:08.114Z,72.73
2022-09-20T02:35:41.131Z,71.94
2022-09-20T02:38:13.757Z,71.93
2022-09-20T02:41:02.047Z,70.91
2022-09-20T02:43:50.991Z,71.35
2022-09-20T02:46:24.350Z,71.82
2022-09-20T02:49:09.550Z,72.25
2022-09-20T02:52:07.186Z,72.12
2022-09-20T02:54:52.125Z,72.11
2022-09-20T02:57:34.554Z,72.18
2022-09-20T03:00:14.978Z,72.18
2022-09-20T03:02:51.347Z,72.29
2022-09-20T03:05:32.306Z,72.58
2022-09-20T03:08:30.391Z,72.74
2022-09-20T03:10:56.912Z,73.40
2022-09-20T03:13:29.376Z,73.30
2022-09-20T03:16:09.245Z,73.93
2022-09-20T03:18:54.802Z,73.69
2022-09-20T03:21:27.180Z,73.07
2022-09-20T03:24:08.906Z,73.49
2022-09-20T03:26:47.947Z,73.73
2022-09-20T03:29:33.751Z,73.62
2022-09-20T03:32:26.577Z,73.66
2022-09-20T03:35:19.773Z,73.10
2022-09-20T03:38:14.451Z,71.63
2022-09-20T03:41:01.898Z,72.86
2022-09-20T03:43:54.817Z,73.46
2022-09-20T03:46:30.005Z,73.31
2022-09-20T03:49:23.322Z,74.04
2022-09-20T03:51:58.338Z,74.37
2022-09-20T03:54:57.559Z,74.43
2022-09-20T03:57:52.008Z,74.97
2022-09-20T04:00:23.092Z,74.48
2022-09-20T04:02:58.392Z,75.57
2022-09-20T04:05:55.664Z,76.11
2022-09-20T04:08:48.550Z,75.82
2022-09-20T04:11:40.833Z,76.23
2022-09-20T04:14:34.933Z,76.53
2022-09-20T04:17:17.230Z,76.57
2022-09-20T04:19:55.039Z,76.69
2022-09-20T04:22:25.196Z,76.91
2022-09-20T04:25:12.162Z,77.68
2022-09-20T04:27:49.012Z,76.20
2022-09-20T04:30:22.581Z,76.32
2022-09-20T04:33:11.811Z,75.71
2022-09-20T04:36:14.729Z,76.59
2022-09-20T04:38:41.803Z,76.94
2022-09-20T04:41:40.772Z,77.52
2022-09-20T04:44:32.166Z,77.19
2022-09-20T04:47:05.904Z,76.24
2022-09-20T04:49:33.682Z,77.07
2022-09-20T04:52:41.811Z,76.39
2022-09-20T04:55:29.436Z,76.57
2022-09-20T04:58:22.209Z,77.26
2022-09-20T05:01:19.550Z,77.22
2022-09-20T05:04:08.790Z,76.57
2022-09-20T05:07:07.243Z,76.88
2022-09-20T05:10:07.243Z,77.31
2022-09-20T05:13:05.213Z,76.93
2022-09-20T05:15:42.981Z,76.95
2022-09-20T05:18:37.375Z,77.16
2022-09-20T05:21:33.768Z,77.00
2022-09-20T05:24:16.724Z,76.74
2022-09-20T05:27:41.688Z,77.90
2022-09-20T05:30:37.875Z,77.03
2022-09-20T05:34:07.824Z,77.07
2022-09-20T05:36:48.599Z,76.74
2022-09-20T05:39:46.834Z,75.79
2022-09-20T05:42:42.813Z,75.42
2022-09-20T05:45:26.226Z,75.41
2022-09-20T05:48:23.337Z,75.02
2022-09-20T05:51:04.095Z,75.63
2022-09-20T05:54:07.992Z,75.58
2022-09-20T05:57:03.579Z,75.50
2022-09-20T05:59:56.730Z,74.82
2022-09-20T06:02:40.584Z,73.76
2022-09-20T06:05:19.221Z,73.79
2022-09-20T06:08:15.656Z,74.10
2022-09-20T06:11:12.577Z,74.13
2022-09-20T06:13:49.852Z,74.16
2022-09-20T06:16:28.301Z,73.54
2022-09-20T06:19:19.091Z,73.35
2022-09-20T06:21:57.606Z,74.12
2022-09-20T06:24:49.284Z,74.67
2022-09-20T06:27:26.293Z,76.10
2022-09-20T06:29:59.771Z,75.57
2022-09-20T06:32:26.829Z,76.33
2022-09-20T06:34:54.708Z,75.82
2022-09-20T06:38:25.261Z,74.53
2022-09-20T06:41:11.912Z,73.88
2022-09-20T06:43:40.383Z,72.13
2022-09-20T06:46:07.812Z,71.88
2022-09-20T06:48:35.243Z,71.39
2022-09-20T06:51:01.964Z,69.58
2022-09-20T06:53:32.381Z,69.26
2022-09-20T06:56:00.573Z,68.51
2022-09-20T06:58:28.064Z,68.84
2022-09-20T07:00:54.670Z,69.12
2022-09-20T07:03:21.412Z,68.81
2022-09-20T07:05:48.208Z,69.46
2022-09-20T07:08:16.489Z,70.67
2022-09-20T07:10:43.983Z,70.41
2022-09-20T07:13:13.812Z,70.02
2022-09-20T07:15:40.835Z,70.64
2022-09-20T07:18:08.140Z,71.87
2022-09-20T07:20:35.055Z,71.11
2022-09-20T07:23:02.627Z,68.84
2022-09-20T07:25:31.286Z,67.69
2022-09-20T07:27:58.063Z,67.57
2022-09-20T07:30:24.917Z,66.78
2022-09-20T07:32:51.894Z,66.76
2022-09-20T07:35:18.772Z,66.88
2022-09-20T07:37:45.649Z,67.31
2022-09-20T07:40:15.856Z,66.40
2022-09-20T07:42:45.266Z,66.18
2022-09-20T07:45:12.927Z,66.38
2022-09-20T07:47:42.038Z,66.20
2022-09-20T07:50:09.863Z,64.45
2022-09-20T07:52:36.517Z,64.09
2022-09-20T07:55:03.566Z,63.10
2022-09-20T07:57:36.185Z,63.08
2022-09-20T08:00:05.781Z,62.22
2022-09-20T08:02:39.859Z,61.87
2022-09-20T08:05:06.815Z,62.05
2022-09-20T08:07:33.427Z,59.96
2022-09-20T08:10:00.111Z,59.73
2022-09-20T08:15:14.484Z,57.30
2022-09-20T08:17:41.106Z,57.94
2022-09-20T08:20:08.270Z,57.36
2022-09-20T08:22:35.211Z,59.94
2022-09-20T08:25:01.993Z,60.28
2022-09-20T08:27:30.075Z,60.50
2022-09-20T08:29:57.431Z,61.22
2022-09-20T08:32:24.225Z,61.63
2022-09-20T08:34:51.005Z,61.68
2022-09-20T08:37:17.800Z,61.35
2022-09-20T08:39:59.719Z,61.39
2022-09-20T08:42:44.338Z,60.86
2022-09-20T08:45:23.372Z,61.63
2022-09-20T08:48:05.497Z,61.07
2022-09-20T08:50:34.224Z,61.07
2022-09-20T08:53:05.713Z,60.62
2022-09-20T08:55:40.156Z,60.97
2022-09-20T08:58:11.943Z,60.72
2022-09-20T09:00:40.644Z,59.64
2022-09-20T09:03:12.802Z,59.19
2022-09-20T09:05:52.808Z,58.51
2022-09-20T09:08:30.877Z,58.23
2022-09-20T09:11:01.825Z,58.71
2022-09-20T09:13:37.262Z,57.06
2022-09-20T09:16:13.085Z,54.58
2022-09-20T09:18:42.497Z,54.18
2022-09-20T09:21:17.181Z,54.77
2022-09-20T09:24:01.220Z,55.32
2022-09-20T09:26:36.864Z,55.83
2022-09-20T09:29:22.859Z,55.35
2022-09-20T09:31:52.521Z,55.88
2022-09-20T09:34:30.512Z,54.18
2022-09-20T09:36:58.300Z,53.43
2022-09-20T09:39:32.433Z,53.26
2022-09-20T09:42:01.067Z,53.76
2022-09-20T09:44:32.679Z,54.93
2022-09-20T09:47:00.149Z,56.18
2022-09-20T09:49:35.842Z,57.16
2022-09-20T09:52:12.937Z,57.57
2022-09-20T09:54:47.248Z,58.43
2022-09-20T09:57:15.887Z,58.44
2022-09-20T09:59:49.195Z,58.36
2022-09-20T10:02:44.464Z,57.97
2022-09-20T10:05:20.186Z,59.03
2022-09-20T10:08:11.032Z,56.87
2022-09-20T10:11:22.855Z,56.85
2022-09-20T10:14:07.610Z,54.29
2022-09-20T10:16:51.797Z,52.84
2022-09-20T10:19:46.488Z,52.17
2022-09-20T10:22:34.502Z,52.60
2022-09-20T10:25:37.066Z,52.42
2022-09-20T10:28:10.629Z,53.27
2022-09-20T10:30:46.491Z,51.67
2022-09-20T10:33:24.555Z,50.87
2022-09-20T10:36:07.028Z,49.87
2022-09-20T10:39:10.432Z,50.03
2022-09-20T10:42:20.630Z,49.41
2022-09-20T10:45:03.224Z,50.16
2022-09-20T10:47:43.315Z,51.63
2022-09-20T10:50:33.373Z,51.58
2022-09-20T10:53:23.113Z,54.88
2022-09-20T10:56:11.223Z,59.79
2022-09-20T10:58:48.165Z,61.48
2022-09-20T11:01:23.661Z,62.98
2022-09-20T11:04:09.058Z,57.07
2022-09-20T11:06:48.082Z,58.63
2022-09-20T11:09:21.389Z,59.30
2022-09-20T11:11:55.396Z,59.50
2022-09-20T11:14:32.568Z,58.39
2022-09-20T11:17:14.126Z,60.08
2022-09-20T11:19:56.505Z,59.53
2022-09-20T11:22:31.667Z,58.24
2022-09-20T11:25:06.585Z,60.20
2022-09-20T11:27:40.606Z,59.88
2022-09-20T11:30:22.314Z,60.04
2022-09-20T11:32:54.861Z,59.97
2022-09-20T11:35:30.439Z,60.65
2022-09-20T11:38:04.820Z,61.63
2022-09-20T11:40:35.870Z,60.29
2022-09-20T11:43:06.672Z,60.77
2022-09-20T11:45:34.674Z,58.35
2022-09-20T11:48:11.253Z,58.70
2022-09-20T11:50:57.057Z,59.80
2022-09-20T11:53:36.835Z,56.73
2022-09-20T11:56:20.091Z,58.32
2022-09-20T11:58:55.953Z,58.01
2022-09-20T12:01:35.921Z,56.25
2022-09-20T12:04:31.172Z,55.96
2022-09-20T12:07:17.619Z,56.24
2022-09-20T12:10:21.572Z,55.29
2022-09-20T12:12:51.093Z,56.73
2022-09-20T12:15:36.510Z,56.63
2022-09-20T12:18:29.037Z,55.86
2022-09-20T12:20:55.659Z,55.82
2022-09-20T12:23:40.910Z,55.24
2022-09-20T12:26:22.853Z,54.43
2022-09-20T12:28:55.153Z,53.72
2022-09-20T12:31:34.146Z,53.23
2022-09-20T12:34:01.057Z,51.59
2022-09-20T12:36:31.321Z,52.01
2022-09-20T12:39:02.365Z,52.88
2022-09-20T12:41:46.009Z,52.94
2022-09-20T12:44:46.408Z,53.46
2022-09-20T12:47:12.971Z,53.35
2022-09-20T12:49:59.888Z,54.08
2022-09-20T12:52:53.282Z,54.55
2022-09-20T12:55:55.216Z,54.93
2022-09-20T12:58:26.520Z,54.47
2022-09-20T13:00:57.505Z,50.23
2022-09-20T13:03:36.406Z,50.97
2022-09-20T13:06:06.472Z,51.87
2022-09-20T13:08:39.847Z,53.11
2022-09-20T13:11:06.814Z,52.25
2022-09-20T13:13:44.056Z,51.36
2022-09-20T13:16:22.454Z,49.96
2022-09-20T13:19:16.382Z,50.24
2022-09-20T13:21:55.005Z,51.01
2022-09-20T13:24:24.726Z,50.71
2022-09-20T13:26:54.111Z,51.31
2022-09-20T13:29:34.027Z,52.85
2022-09-20T13:32:30.374Z,53.74
2022-09-20T13:35:10.229Z,53.65
2022-09-20T13:37:57.458Z,54.28
2022-09-20T13:40:33.651Z,55.07
2022-09-20T13:43:22.713Z,55.84
2022-09-20T13:45:55.445Z,53.24
2022-09-20T13:48:30.907Z,54.12
2022-09-20T13:50:58.794Z,52.85
2022-09-20T13:53:41.041Z,53.88
2022-09-20T13:56:25.446Z,54.49
2022-09-20T13:58:52.822Z,55.62
2022-09-20T14:01:22.079Z,56.36
2022-09-20T14:03:49.089Z,56.52
2022-09-20T14:06:16.245Z,56.33
2022-09-20T14:08:45.855Z,56.32
2022-09-20T14:11:19.993Z,56.43
2022-09-20T14:13:49.654Z,55.59
2022-09-20T14:16:18.972Z,55.56
2022-09-20T14:18:47.955Z,55.42
2022-09-20T14:21:22.629Z,54.86
2022-09-20T14:24:02.770Z,56.05
2022-09-20T14:26:34.761Z,54.17
2022-09-20T14:29:37.237Z,53.85
2022-09-20T14:32:09.774Z,52.61
2022-09-20T14:34:41.043Z,53.04
2022-09-20T14:37:21.399Z,51.23
2022-09-20T14:39:52.765Z,50.17
2022-09-20T14:42:23.288Z,49.22
2022-09-20T14:44:52.086Z,49.05
2022-09-20T14:47:36.501Z,49.13
2022-09-20T14:50:04.734Z,48.80
2022-09-20T14:52:36.655Z,47.92
2022-09-20T14:55:16.557Z,48.45
2022-09-20T14:57:45.722Z,48.19
2022-09-20T15:00:17.144Z,48.44
2022-09-20T15:02:45.450Z,48.67
2022-09-20T15:05:26.030Z,48.00
2022-09-20T15:07:55.198Z,48.33
2022-09-20T15:10:22.549Z,48.78
2022-09-20T15:12:49.336Z,48.80
2022-09-20T15:15:18.857Z,47.77
2022-09-20T15:17:46.938Z,48.70
2022-09-20T15:20:24.313Z,48.87
2022-09-20T15:22:51.403Z,48.94
2022-09-20T15:25:21.120Z,49.25
2022-09-20T15:27:50.791Z,49.24
2022-09-20T15:30:19.831Z,49.40
2022-09-20T15:32:47.150Z,49.38
2022-09-20T15:35:14.377Z,49.87
2022-09-20T15:37:41.430Z,50.60
2022-09-20T15:40:08.744Z,50.49
2022-09-20T15:42:38.343Z,51.00
2022-09-20T15:45:10.102Z,51.89
2022-09-20T15:47:40.320Z,52.54
2022-09-20T15:50:08.902Z,51.78
2022-09-20T15:52:37.387Z,52.03
2022-09-20T15:55:04.455Z,52.41
2022-09-20T15:57:32.008Z,52.35
2022-09-20T15:59:59.449Z,52.92
2022-09-20T16:02:28.423Z,52.77
2022-09-20T16:04:55.838Z,52.06
2022-09-20T16:07:26.952Z,51.55
2022-09-20T16:09:55.029Z,51.12
2022-09-20T16:12:23.601Z,51.36
2022-09-20T16:14:50.531Z,51.02
2022-09-20T16:17:17.866Z,50.49
2022-09-20T16:19:48.645Z,50.41
2022-09-20T16:22:15.981Z,51.02
2022-09-20T16:24:42.696Z,50.99
2022-09-20T16:27:09.792Z,51.08
2022-09-20T16:29:36.562Z,50.64
2022-09-20T16:32:05.315Z,50.73
2022-09-20T16:34:36.167Z,51.14
2022-09-20T16:37:16.909Z,51.17
2022-09-20T16:39:44.647Z,51.29
2022-09-20T16:42:12.816Z,51.44
2022-09-20T16:44:44.402Z,52.13
2022-09-20T16:47:18.147Z,52.92
2022-09-20T16:49:47.336Z,53.19
2022-09-20T16:52:14.196Z,53.77
2022-09-20T16:54:41.857Z,53.64
2022-09-20T16:57:09.553Z,53.55
2022-09-20T16:59:36.438Z,53.24
2022-09-20T17:02:03.296Z,53.82
2022-09-20T17:04:30.145Z,53.53
2022-09-20T17:06:56.899Z,54.09
2022-09-20T17:09:23.491Z,54.43
2022-09-20T17:11:51.246Z,54.23
2022-09-20T17:14:20.295Z,54.26
2022-09-20T17:16:47.869Z,54.54
2022-09-20T17:19:20.281Z,54.04
2022-09-20T17:21:50.214Z,54.09
2022-09-20T17:24:22.379Z,54.24
2022-09-20T17:26:50.309Z,54.16
2022-09-20T17:29:18.656Z,53.99
2022-09-20T17:31:53.223Z,54.30
2022-09-20T17:34:22.115Z,54.45
2022-09-20T17:36:50.399Z,55.03
2022-09-20T17:39:17.947Z,55.13
2022-09-20T17:41:47.074Z,55.49
2022-09-20T17:44:14.475Z,55.48
2022-09-20T17:46:46.209Z,55.74
2022-09-20T17:49:15.857Z,56.83
2022-09-20T17:51:46.218Z,56.97
2022-09-20T17:54:13.994Z,56.96
2022-09-20T17:56:48.683Z,57.66
2022-09-20T17:59:16.710Z,57.90
2022-09-20T18:01:45.292Z,58.55
2022-09-20T18:04:13.048Z,58.52
2022-09-20T18:06:51.276Z,58.50
2022-09-20T18:09:24.343Z,58.44
2022-09-20T18:11:53.003Z,58.46
2022-09-20T18:14:23.112Z,58.67
2022-09-20T18:16:55.329Z,58.86
2022-09-20T18:19:22.924Z,58.56
2022-09-20T18:21:50.347Z,58.81
2022-09-20T18:24:17.050Z,59.33
2022-09-20T18:26:44.463Z,59.25
2022-09-20T18:29:18.019Z,59.26
2022-09-20T18:31:54.258Z,59.52
2022-09-20T18:34:26.658Z,59.23
2022-09-20T18:36:55.442Z,59.49
2022-09-20T18:39:24.131Z,59.47
2022-09-20T18:41:51.384Z,59.35
2022-09-20T18:44:18.532Z,59.83
2022-09-20T18:46:46.682Z,59.70
2022-09-20T18:49:15.000Z,59.89
2022-09-20T18:51:42.656Z,59.82
2022-09-20T18:54:10.551Z,60.16
2022-09-20T18:56:42.056Z,60.55
2022-09-20T18:59:18.163Z,60.79
2022-09-20T19:01:55.001Z,61.15
2022-09-20T19:04:42.669Z,61.32
2022-09-20T19:07:27.270Z,60.86
2022-09-20T19:10:04.912Z,61.27
2022-09-20T19:12:42.886Z,61.81
2022-09-20T19:15:34.502Z,61.29
2022-09-20T19:18:38.581Z,61.26
2022-09-20T19:21:31.074Z,61.54
2022-09-20T19:24:14.004Z,61.58
2022-09-20T19:26:40.971Z,61.71
2022-09-20T19:29:26.727Z,61.52
2022-09-20T19:31:56.259Z,61.97
2022-09-20T19:34:24.525Z,61.73
2022-09-20T19:37:05.372Z,61.57
2022-09-20T19:40:10.355Z,61.77
2022-09-20T19:43:00.136Z,62.18
2022-09-20T19:45:38.975Z,62.78
2022-09-20T19:48:36.084Z,63.33
2022-09-20T19:51:08.006Z,63.48
2022-09-20T19:53:34.951Z,63.29
2022-09-20T19:56:16.376Z,63.36
2022-09-20T19:58:44.964Z,63.53
2022-09-20T20:01:12.278Z,63.54
2022-09-20T20:03:39.953Z,63.47
2022-09-20T20:06:18.512Z,63.32
2022-09-20T20:09:13.952Z,63.35
2022-09-20T20:12:05.225Z,62.92
2022-09-20T20:15:06.550Z,63.16
2022-09-20T20:17:40.127Z,63.11
2022-09-20T20:20:39.601Z,63.11
2022-09-20T20:23:42.879Z,63.40
2022-09-20T20:26:23.324Z,63.83
2022-09-20T20:28:51.967Z,63.62
2022-09-20T20:31:20.300Z,63.88
2022-09-20T20:33:47.060Z,64.50
2022-09-20T20:36:13.867Z,64.96
2022-09-20T20:38:41.818Z,64.77
2022-09-20T20:41:13.448Z,65.27
2022-09-20T20:43:42.446Z,65.13
2022-09-20T20:46:12.078Z,65.28
2022-09-20T20:48:38.787Z,65.83
2022-09-20T20:51:10.506Z,65.89
2022-09-20T20:53:39.615Z,66.43
2022-09-20T20:56:18.281Z,66.27
2022-09-20T20:58:46.241Z,66.41
2022-09-20T21:01:18.724Z,66.20
2022-09-20T21:03:56.032Z,66.34
2022-09-20T21:06:25.108Z,66.27
2022-09-20T21:08:52.375Z,66.36
2022-09-20T21:11:24.221Z,66.29
2022-09-20T21:13:51.973Z,66.55
2022-09-20T21:16:21.734Z,67.00
2022-09-20T21:18:49.535Z,67.18
2022-09-20T21:21:22.383Z,67.24
2022-09-20T21:23:51.403Z,68.13
2022-09-20T21:26:19.323Z,68.42
2022-09-20T21:28:53.945Z,69.39
2022-09-20T21:31:22.376Z,70.26
2022-09-20T21:33:49.985Z,69.74
2022-09-20T21:36:22.125Z,70.11
2022-09-20T21:38:49.376Z,69.72
2022-09-20T21:41:24.455Z,69.78
2022-09-20T21:43:53.797Z,68.97
2022-09-20T21:46:29.104Z,68.93
2022-09-20T21:48:58.052Z,69.32
2022-09-20T21:51:26.693Z,69.34
2022-09-20T21:53:56.451Z,69.41
2022-09-20T21:56:24.966Z,69.84
2022-09-20T21:58:51.717Z,70.14
2022-09-20T22:01:21.414Z,70.64
2022-09-20T22:03:51.692Z,70.88
2022-09-20T22:06:20.886Z,71.15
2022-09-20T22:08:53.732Z,71.20
2022-09-20T22:11:22.203Z,70.59
2022-09-20T22:13:50.855Z,70.40
2022-09-20T22:16:26.589Z,70.20
2022-09-20T22:18:55.196Z,70.24
2022-09-20T22:21:24.851Z,70.17
2022-09-20T22:23:53.653Z,70.52
2022-09-20T22:26:21.963Z,70.63
2022-09-20T22:28:49.928Z,70.99
2022-09-20T22:31:22.626Z,71.09
2022-09-20T22:33:51.531Z,71.51
2022-09-20T22:36:21.269Z,71.27
2022-09-20T22:38:48.110Z,71.25
2022-09-20T22:41:17.374Z,71.40
2022-09-20T22:43:44.393Z,71.55
2022-09-20T22:46:14.224Z,71.86
2022-09-20T22:48:42.195Z,72.07
2022-09-20T22:51:12.076Z,72.56
2022-09-20T22:53:38.817Z,72.16
2022-09-20T22:56:15.634Z,72.05
2022-09-20T22:58:47.415Z,72.24
2022-09-20T23:01:22.223Z,72.12
2022-09-20T23:03:54.954Z,72.08
2022-09-20T23:06:25.365Z,72.28
2022-09-20T23:08:54.319Z,72.73
2022-09-20T23:11:21.618Z,72.25
2022-09-20T23:13:48.300Z,72.71
2022-09-20T23:16:20.064Z,72.49
2022-09-20T23:18:48.045Z,72.59
2022-09-20T23:21:15.756Z,72.40
2022-09-20T23:23:43.372Z,73.08
2022-09-20T23:26:14.215Z,73.44
2022-09-20T23:28:42.949Z,73.75
2022-09-20T23:31:14.765Z,73.85
2022-09-20T23:33:51.484Z,74.21
2022-09-20T23:36:19.262Z,74.59
2022-09-20T23:38:46.999Z,75.46
2022-09-20T23:41:15.776Z,75.50
2022-09-20T23:43:42.949Z,75.66
2022-09-20T23:46:11.800Z,75.77
2022-09-20T23:48:41.393Z,75.88
2022-09-20T23:51:12.943Z,75.60
2022-09-20T23:53:40.339Z,75.51
2022-09-20T23:56:07.291Z,75.96
2022-09-20T23:58:37.139Z,75.26
